sensor_id;sensor_type;location;lat;lon;timestamp;temperature;humidity
19256;DHT22;9762;52.490;13.410;2022-08-16T00:00:12;24.30;99.90
19256;DHT22;9762;52.490;13.410;2022-08-16T00:02:38;24.30;99.90
19256;DHT22;9762;52.490;13.410;2022-08-16T00:05:08;24.30;99.90
19256;DHT22;9762;52.490;13.410;2022-08-16T00:07:34;24.20;99.90
19256;DHT22;9762;52.490;13.410;2022-08-16T00:10:00;24.20;99.90
19256;DHT22;9762;52.490;13.410;2022-08-16T00:12:28;24.20;99.90
19256;DHT22;9762;52.490;13.410;2022-08-16T00:14:55;24.30;99.90
19256;DHT22;9762;52.490;13.410;2022-08-16T00:17:21;24.20;99.90
19256;DHT22;9762;52.490;13.410;2022-08-16T00:19:46;24.20;99.90
19256;DHT22;9762;52.490;13.410;2022-08-16T00:22:12;24.20;99.70
19256;DHT22;9762;52.490;13.410;2022-08-16T00:24:37;24.20;99.80
19256;DHT22;9762;52.490;13.410;2022-08-16T00:27:04;24.20;99.80
19256;DHT22;9762;52.490;13.410;2022-08-16T00:29:30;24.10;99.90
19256;DHT22;9762;52.490;13.410;2022-08-16T00:31:57;24.10;99.90
19256;DHT22;9762;52.490;13.410;2022-08-16T00:34:23;24.10;99.90
19256;DHT22;9762;52.490;13.410;2022-08-16T00:36:49;24.10;99.90
19256;DHT22;9762;52.490;13.410;2022-08-16T00:39:16;24.00;99.90
19256;DHT22;9762;52.490;13.410;2022-08-16T00:41:43;24.00;99.90
19256;DHT22;9762;52.490;13.410;2022-08-16T00:44:10;24.00;99.90
19256;DHT22;9762;52.490;13.410;2022-08-16T00:46:44;23.90;99.90
19256;DHT22;9762;52.490;13.410;2022-08-16T00:49:12;23.90;99.90
19256;DHT22;9762;52.490;13.410;2022-08-16T00:54:04;23.80;99.90
19256;DHT22;9762;52.490;13.410;2022-08-16T00:56:33;23.80;99.90
19256;DHT22;9762;52.490;13.410;2022-08-16T00:59:00;23.80;99.90
19256;DHT22;9762;52.490;13.410;2022-08-16T01:01:26;23.70;99.90
19256;DHT22;9762;52.490;13.410;2022-08-16T01:03:52;23.70;99.90
19256;DHT22;9762;52.490;13.410;2022-08-16T01:06:20;23.60;99.90
19256;DHT22;9762;52.490;13.410;2022-08-16T01:08:48;23.50;99.90
19256;DHT22;9762;52.490;13.410;2022-08-16T01:11:15;23.50;99.90
19256;DHT22;9762;52.490;13.410;2022-08-16T01:13:42;23.50;99.90
19256;DHT22;9762;52.490;13.410;2022-08-16T01:16:37;23.50;99.90
19256;DHT22;9762;52.490;13.410;2022-08-16T01:21:37;23.50;99.90
19256;DHT22;9762;52.490;13.410;2022-08-16T01:24:12;23.50;99.90
19256;DHT22;9762;52.490;13.410;2022-08-16T01:26:40;23.50;99.90
19256;DHT22;9762;52.490;13.410;2022-08-16T01:29:09;23.50;99.90
19256;DHT22;9762;52.490;13.410;2022-08-16T01:31:36;23.50;99.90
19256;DHT22;9762;52.490;13.410;2022-08-16T01:34:02;23.50;99.90
19256;DHT22;9762;52.490;13.410;2022-08-16T01:36:29;23.50;99.90
19256;DHT22;9762;52.490;13.410;2022-08-16T01:38:54;23.50;99.90
19256;DHT22;9762;52.490;13.410;2022-08-16T01:41:23;23.50;99.90
19256;DHT22;9762;52.490;13.410;2022-08-16T01:43:51;23.60;99.90
19256;DHT22;9762;52.490;13.410;2022-08-16T01:48:52;23.60;99.90
19256;DHT22;9762;52.490;13.410;2022-08-16T01:51:20;23.60;99.90
19256;DHT22;9762;52.490;13.410;2022-08-16T01:53:46;23.50;99.90
19256;DHT22;9762;52.490;13.410;2022-08-16T01:56:11;23.50;99.90
19256;DHT22;9762;52.490;13.410;2022-08-16T01:58:37;23.50;99.90
19256;DHT22;9762;52.490;13.410;2022-08-16T02:01:03;23.50;99.90
19256;DHT22;9762;52.490;13.410;2022-08-16T02:03:31;23.50;99.90
19256;DHT22;9762;52.490;13.410;2022-08-16T02:05:57;23.50;99.90
19256;DHT22;9762;52.490;13.410;2022-08-16T02:08:22;23.40;99.90
19256;DHT22;9762;52.490;13.410;2022-08-16T02:10:51;23.40;99.90
19256;DHT22;9762;52.490;13.410;2022-08-16T02:13:16;23.40;99.90
19256;DHT22;9762;52.490;13.410;2022-08-16T02:15:43;23.40;99.90
19256;DHT22;9762;52.490;13.410;2022-08-16T02:18:09;23.40;99.90
19256;DHT22;9762;52.490;13.410;2022-08-16T02:20:36;23.40;99.90
19256;DHT22;9762;52.490;13.410;2022-08-16T02:23:03;23.40;99.90
19256;DHT22;9762;52.490;13.410;2022-08-16T02:25:29;23.30;99.90
19256;DHT22;9762;52.490;13.410;2022-08-16T02:27:55;23.30;99.90
19256;DHT22;9762;52.490;13.410;2022-08-16T02:30:27;23.40;99.90
19256;DHT22;9762;52.490;13.410;2022-08-16T02:32:54;23.40;99.90
19256;DHT22;9762;52.490;13.410;2022-08-16T02:35:20;23.40;99.90
19256;DHT22;9762;52.490;13.410;2022-08-16T02:37:46;23.30;99.90
19256;DHT22;9762;52.490;13.410;2022-08-16T02:40:12;23.30;99.90
19256;DHT22;9762;52.490;13.410;2022-08-16T02:42:40;23.30;99.90
19256;DHT22;9762;52.490;13.410;2022-08-16T02:45:06;23.30;99.90
19256;DHT22;9762;52.490;13.410;2022-08-16T02:47:32;23.30;99.90
19256;DHT22;9762;52.490;13.410;2022-08-16T02:49:57;23.30;99.90
19256;DHT22;9762;52.490;13.410;2022-08-16T02:52:23;23.30;99.90
19256;DHT22;9762;52.490;13.410;2022-08-16T02:54:48;23.30;99.90
19256;DHT22;9762;52.490;13.410;2022-08-16T02:57:14;23.30;99.90
19256;DHT22;9762;52.490;13.410;2022-08-16T02:59:39;23.30;99.90
19256;DHT22;9762;52.490;13.410;2022-08-16T03:02:07;23.40;99.90
19256;DHT22;9762;52.490;13.410;2022-08-16T03:04:35;23.40;99.90
19256;DHT22;9762;52.490;13.410;2022-08-16T03:07:01;23.40;99.90
19256;DHT22;9762;52.490;13.410;2022-08-16T03:09:27;23.40;99.90
19256;DHT22;9762;52.490;13.410;2022-08-16T03:11:52;23.40;99.90
19256;DHT22;9762;52.490;13.410;2022-08-16T03:14:18;23.40;99.90
19256;DHT22;9762;52.490;13.410;2022-08-16T03:16:43;23.30;99.90
19256;DHT22;9762;52.490;13.410;2022-08-16T03:19:09;23.30;99.90
19256;DHT22;9762;52.490;13.410;2022-08-16T03:21:35;23.30;99.90
19256;DHT22;9762;52.490;13.410;2022-08-16T03:24:01;23.30;99.90
19256;DHT22;9762;52.490;13.410;2022-08-16T03:26:27;23.30;99.90
19256;DHT22;9762;52.490;13.410;2022-08-16T03:28:52;23.30;99.90
19256;DHT22;9762;52.490;13.410;2022-08-16T03:31:18;23.30;99.90
19256;DHT22;9762;52.490;13.410;2022-08-16T03:33:43;23.30;99.90
19256;DHT22;9762;52.490;13.410;2022-08-16T03:36:09;23.30;99.90
19256;DHT22;9762;52.490;13.410;2022-08-16T03:38:35;23.30;99.90
19256;DHT22;9762;52.490;13.410;2022-08-16T03:41:02;23.30;99.90
19256;DHT22;9762;52.490;13.410;2022-08-16T03:43:28;23.30;99.90
19256;DHT22;9762;52.490;13.410;2022-08-16T03:45:55;23.30;99.90
19256;DHT22;9762;52.490;13.410;2022-08-16T03:48:24;23.30;99.90
19256;DHT22;9762;52.490;13.410;2022-08-16T03:50:50;23.30;99.90
19256;DHT22;9762;52.490;13.410;2022-08-16T03:53:16;23.30;99.90
19256;DHT22;9762;52.490;13.410;2022-08-16T03:55:41;23.30;99.90
19256;DHT22;9762;52.490;13.410;2022-08-16T03:58:07;23.20;99.90
19256;DHT22;9762;52.490;13.410;2022-08-16T04:00:33;23.20;99.90
19256;DHT22;9762;52.490;13.410;2022-08-16T04:03:00;23.30;99.90
19256;DHT22;9762;52.490;13.410;2022-08-16T04:05:35;23.20;99.90
19256;DHT22;9762;52.490;13.410;2022-08-16T04:08:03;23.20;99.90
19256;DHT22;9762;52.490;13.410;2022-08-16T04:10:29;23.20;99.90
19256;DHT22;9762;52.490;13.410;2022-08-16T04:12:55;23.20;99.90
19256;DHT22;9762;52.490;13.410;2022-08-16T04:15:22;23.20;99.90
19256;DHT22;9762;52.490;13.410;2022-08-16T04:17:47;23.20;99.90
19256;DHT22;9762;52.490;13.410;2022-08-16T04:20:14;23.20;99.90
19256;DHT22;9762;52.490;13.410;2022-08-16T04:22:40;23.20;99.90
19256;DHT22;9762;52.490;13.410;2022-08-16T04:25:09;23.20;99.90
19256;DHT22;9762;52.490;13.410;2022-08-16T04:27:35;23.20;99.90
19256;DHT22;9762;52.490;13.410;2022-08-16T04:30:03;23.10;99.90
19256;DHT22;9762;52.490;13.410;2022-08-16T04:32:30;23.20;99.90
19256;DHT22;9762;52.490;13.410;2022-08-16T04:34:55;23.10;99.90
19256;DHT22;9762;52.490;13.410;2022-08-16T04:37:21;23.10;99.90
19256;DHT22;9762;52.490;13.410;2022-08-16T04:39:46;23.10;99.90
19256;DHT22;9762;52.490;13.410;2022-08-16T04:42:13;23.10;99.90
19256;DHT22;9762;52.490;13.410;2022-08-16T04:44:38;23.20;99.90
19256;DHT22;9762;52.490;13.410;2022-08-16T04:47:04;23.20;99.90
19256;DHT22;9762;52.490;13.410;2022-08-16T04:49:30;23.20;99.90
19256;DHT22;9762;52.490;13.410;2022-08-16T04:51:55;23.20;99.90
19256;DHT22;9762;52.490;13.410;2022-08-16T04:54:21;23.20;99.90
19256;DHT22;9762;52.490;13.410;2022-08-16T04:56:47;23.20;99.90
19256;DHT22;9762;52.490;13.410;2022-08-16T04:59:12;23.20;99.90
19256;DHT22;9762;52.490;13.410;2022-08-16T05:01:38;23.20;99.90
19256;DHT22;9762;52.490;13.410;2022-08-16T05:04:04;23.30;99.90
19256;DHT22;9762;52.490;13.410;2022-08-16T05:06:30;23.30;99.90
19256;DHT22;9762;52.490;13.410;2022-08-16T05:08:56;23.30;99.90
19256;DHT22;9762;52.490;13.410;2022-08-16T05:11:22;23.30;99.90
19256;DHT22;9762;52.490;13.410;2022-08-16T05:13:49;23.30;99.90
19256;DHT22;9762;52.490;13.410;2022-08-16T05:16:18;23.30;99.90
19256;DHT22;9762;52.490;13.410;2022-08-16T05:18:44;23.30;99.90
19256;DHT22;9762;52.490;13.410;2022-08-16T05:21:11;23.40;99.90
19256;DHT22;9762;52.490;13.410;2022-08-16T05:23:36;23.40;99.90
19256;DHT22;9762;52.490;13.410;2022-08-16T05:26:03;23.40;99.90
19256;DHT22;9762;52.490;13.410;2022-08-16T05:28:28;23.40;99.90
19256;DHT22;9762;52.490;13.410;2022-08-16T05:30:54;23.50;99.90
19256;DHT22;9762;52.490;13.410;2022-08-16T05:33:20;23.50;99.90
19256;DHT22;9762;52.490;13.410;2022-08-16T05:35:47;23.50;99.90
19256;DHT22;9762;52.490;13.410;2022-08-16T05:38:13;23.50;99.90
19256;DHT22;9762;52.490;13.410;2022-08-16T05:40:39;23.60;99.90
19256;DHT22;9762;52.490;13.410;2022-08-16T05:43:04;23.60;99.90
19256;DHT22;9762;52.490;13.410;2022-08-16T05:45:30;23.60;99.90
19256;DHT22;9762;52.490;13.410;2022-08-16T05:47:56;23.60;99.90
19256;DHT22;9762;52.490;13.410;2022-08-16T05:50:22;23.60;99.90
19256;DHT22;9762;52.490;13.410;2022-08-16T05:52:48;23.60;99.90
19256;DHT22;9762;52.490;13.410;2022-08-16T05:55:13;23.60;99.90
19256;DHT22;9762;52.490;13.410;2022-08-16T05:57:39;23.60;99.90
19256;DHT22;9762;52.490;13.410;2022-08-16T06:00:07;23.70;99.90
19256;DHT22;9762;52.490;13.410;2022-08-16T06:02:35;23.70;99.90
19256;DHT22;9762;52.490;13.410;2022-08-16T06:05:02;23.70;99.90
19256;DHT22;9762;52.490;13.410;2022-08-16T06:07:28;23.70;99.90
19256;DHT22;9762;52.490;13.410;2022-08-16T06:09:54;23.70;99.90
19256;DHT22;9762;52.490;13.410;2022-08-16T06:12:24;23.70;99.90
19256;DHT22;9762;52.490;13.410;2022-08-16T06:14:50;23.70;99.90
19256;DHT22;9762;52.490;13.410;2022-08-16T06:17:16;23.70;99.90
19256;DHT22;9762;52.490;13.410;2022-08-16T06:19:42;23.80;99.90
19256;DHT22;9762;52.490;13.410;2022-08-16T06:22:08;23.80;99.90
19256;DHT22;9762;52.490;13.410;2022-08-16T06:24:35;23.80;99.90
19256;DHT22;9762;52.490;13.410;2022-08-16T06:27:00;23.90;99.90
19256;DHT22;9762;52.490;13.410;2022-08-16T06:29:26;23.90;99.90
19256;DHT22;9762;52.490;13.410;2022-08-16T06:31:52;23.90;99.90
19256;DHT22;9762;52.490;13.410;2022-08-16T06:34:18;24.00;99.90
19256;DHT22;9762;52.490;13.410;2022-08-16T06:36:43;24.00;99.90
19256;DHT22;9762;52.490;13.410;2022-08-16T06:39:09;24.00;99.90
19256;DHT22;9762;52.490;13.410;2022-08-16T06:41:35;24.00;99.90
19256;DHT22;9762;52.490;13.410;2022-08-16T06:44:00;24.00;99.90
19256;DHT22;9762;52.490;13.410;2022-08-16T06:46:32;24.10;99.90
19256;DHT22;9762;52.490;13.410;2022-08-16T06:49:06;24.10;99.90
19256;DHT22;9762;52.490;13.410;2022-08-16T06:51:33;24.20;99.90
19256;DHT22;9762;52.490;13.410;2022-08-16T06:53:59;24.20;99.90
19256;DHT22;9762;52.490;13.410;2022-08-16T06:56:25;24.20;99.90
19256;DHT22;9762;52.490;13.410;2022-08-16T06:58:51;24.30;99.90
19256;DHT22;9762;52.490;13.410;2022-08-16T07:01:18;24.40;99.90
19256;DHT22;9762;52.490;13.410;2022-08-16T07:03:43;24.40;99.90
19256;DHT22;9762;52.490;13.410;2022-08-16T07:06:09;24.50;99.90
19256;DHT22;9762;52.490;13.410;2022-08-16T07:08:36;24.60;99.90
19256;DHT22;9762;52.490;13.410;2022-08-16T07:11:02;24.60;99.70
19256;DHT22;9762;52.490;13.410;2022-08-16T07:13:28;24.70;99.50
19256;DHT22;9762;52.490;13.410;2022-08-16T07:15:55;24.70;99.30
19256;DHT22;9762;52.490;13.410;2022-08-16T07:18:22;24.80;99.10
19256;DHT22;9762;52.490;13.410;2022-08-16T07:20:48;24.90;98.60
19256;DHT22;9762;52.490;13.410;2022-08-16T07:23:14;24.90;98.30
19256;DHT22;9762;52.490;13.410;2022-08-16T07:25:40;25.00;98.10
19256;DHT22;9762;52.490;13.410;2022-08-16T07:28:07;25.10;98.00
19256;DHT22;9762;52.490;13.410;2022-08-16T07:30:33;25.10;97.80
19256;DHT22;9762;52.490;13.410;2022-08-16T07:32:59;25.20;97.50
19256;DHT22;9762;52.490;13.410;2022-08-16T07:35:25;25.20;97.60
19256;DHT22;9762;52.490;13.410;2022-08-16T07:37:51;25.30;97.30
19256;DHT22;9762;52.490;13.410;2022-08-16T07:40:17;25.40;97.10
19256;DHT22;9762;52.490;13.410;2022-08-16T07:42:43;25.40;96.90
19256;DHT22;9762;52.490;13.410;2022-08-16T07:45:09;25.50;96.50
19256;DHT22;9762;52.490;13.410;2022-08-16T07:47:35;25.50;96.60
19256;DHT22;9762;52.490;13.410;2022-08-16T07:50:00;25.60;96.70
19256;DHT22;9762;52.490;13.410;2022-08-16T07:52:26;25.70;96.40
19256;DHT22;9762;52.490;13.410;2022-08-16T07:54:52;25.70;96.30
19256;DHT22;9762;52.490;13.410;2022-08-16T07:57:17;25.80;96.30
19256;DHT22;9762;52.490;13.410;2022-08-16T07:59:43;25.90;96.20
19256;DHT22;9762;52.490;13.410;2022-08-16T08:02:10;25.90;95.70
19256;DHT22;9762;52.490;13.410;2022-08-16T08:04:36;26.00;95.60
19256;DHT22;9762;52.490;13.410;2022-08-16T08:07:03;26.10;95.40
19256;DHT22;9762;52.490;13.410;2022-08-16T08:09:28;26.10;95.10
19256;DHT22;9762;52.490;13.410;2022-08-16T08:11:54;26.10;95.00
19256;DHT22;9762;52.490;13.410;2022-08-16T08:14:20;26.20;95.10
19256;DHT22;9762;52.490;13.410;2022-08-16T08:16:46;26.30;95.00
19256;DHT22;9762;52.490;13.410;2022-08-16T08:19:11;26.30;95.20
19256;DHT22;9762;52.490;13.410;2022-08-16T08:21:39;26.30;94.60
19256;DHT22;9762;52.490;13.410;2022-08-16T08:24:09;26.40;94.60
19256;DHT22;9762;52.490;13.410;2022-08-16T08:26:37;26.40;94.60
19256;DHT22;9762;52.490;13.410;2022-08-16T08:29:03;26.50;94.50
19256;DHT22;9762;52.490;13.410;2022-08-16T08:31:29;26.60;94.50
19256;DHT22;9762;52.490;13.410;2022-08-16T08:33:55;26.70;94.50
19256;DHT22;9762;52.490;13.410;2022-08-16T08:36:29;26.70;94.40
19256;DHT22;9762;52.490;13.410;2022-08-16T08:38:56;26.80;94.10
19256;DHT22;9762;52.490;13.410;2022-08-16T08:41:22;26.80;93.90
19256;DHT22;9762;52.490;13.410;2022-08-16T08:43:49;26.90;93.60
19256;DHT22;9762;52.490;13.410;2022-08-16T08:46:14;27.00;93.30
19256;DHT22;9762;52.490;13.410;2022-08-16T08:48:40;27.00;93.40
19256;DHT22;9762;52.490;13.410;2022-08-16T08:51:07;27.10;93.50
19256;DHT22;9762;52.490;13.410;2022-08-16T08:53:33;27.10;93.30
19256;DHT22;9762;52.490;13.410;2022-08-16T08:56:01;27.20;92.80
19256;DHT22;9762;52.490;13.410;2022-08-16T08:58:27;27.30;92.60
19256;DHT22;9762;52.490;13.410;2022-08-16T09:00:52;27.40;92.30
19256;DHT22;9762;52.490;13.410;2022-08-16T09:03:18;27.50;92.30
19256;DHT22;9762;52.490;13.410;2022-08-16T09:05:43;27.50;91.70
19256;DHT22;9762;52.490;13.410;2022-08-16T09:08:10;27.60;91.30
19256;DHT22;9762;52.490;13.410;2022-08-16T09:10:37;27.70;90.70
19256;DHT22;9762;52.490;13.410;2022-08-16T09:13:03;27.70;90.80
19256;DHT22;9762;52.490;13.410;2022-08-16T09:15:30;27.80;90.40
19256;DHT22;9762;52.490;13.410;2022-08-16T09:17:56;27.80;90.40
19256;DHT22;9762;52.490;13.410;2022-08-16T09:20:23;27.90;90.10
19256;DHT22;9762;52.490;13.410;2022-08-16T09:22:49;28.00;90.00
19256;DHT22;9762;52.490;13.410;2022-08-16T09:25:16;28.00;90.00
19256;DHT22;9762;52.490;13.410;2022-08-16T09:27:42;28.10;89.80
19256;DHT22;9762;52.490;13.410;2022-08-16T09:30:08;28.20;89.30
19256;DHT22;9762;52.490;13.410;2022-08-16T09:32:35;28.20;88.50
19256;DHT22;9762;52.490;13.410;2022-08-16T09:35:01;28.30;87.70
19256;DHT22;9762;52.490;13.410;2022-08-16T09:37:28;28.30;87.30
19256;DHT22;9762;52.490;13.410;2022-08-16T09:39:55;28.40;86.70
19256;DHT22;9762;52.490;13.410;2022-08-16T09:42:20;28.40;86.30
19256;DHT22;9762;52.490;13.410;2022-08-16T09:44:46;28.40;86.50
19256;DHT22;9762;52.490;13.410;2022-08-16T09:47:12;28.50;86.40
19256;DHT22;9762;52.490;13.410;2022-08-16T09:49:38;28.50;85.20
19256;DHT22;9762;52.490;13.410;2022-08-16T09:52:04;28.60;84.40
19256;DHT22;9762;52.490;13.410;2022-08-16T09:54:30;28.60;84.40
19256;DHT22;9762;52.490;13.410;2022-08-16T09:56:56;28.70;85.10
19256;DHT22;9762;52.490;13.410;2022-08-16T09:59:23;28.80;83.70
19256;DHT22;9762;52.490;13.410;2022-08-16T10:01:49;28.80;84.10
19256;DHT22;9762;52.490;13.410;2022-08-16T10:04:16;28.90;83.40
19256;DHT22;9762;52.490;13.410;2022-08-16T10:06:41;28.90;82.90
19256;DHT22;9762;52.490;13.410;2022-08-16T10:09:09;28.90;82.60
19256;DHT22;9762;52.490;13.410;2022-08-16T10:11:36;29.00;82.80
19256;DHT22;9762;52.490;13.410;2022-08-16T10:14:22;29.10;81.00
19256;DHT22;9762;52.490;13.410;2022-08-16T10:16:48;29.10;79.80
19256;DHT22;9762;52.490;13.410;2022-08-16T10:19:14;29.10;79.40
19256;DHT22;9762;52.490;13.410;2022-08-16T10:21:40;29.20;79.60
19256;DHT22;9762;52.490;13.410;2022-08-16T10:24:07;29.20;79.30
19256;DHT22;9762;52.490;13.410;2022-08-16T10:26:34;29.20;79.00
19256;DHT22;9762;52.490;13.410;2022-08-16T10:29:01;29.30;78.00
19256;DHT22;9762;52.490;13.410;2022-08-16T10:31:27;29.30;77.40
19256;DHT22;9762;52.490;13.410;2022-08-16T10:33:52;29.40;77.10
19256;DHT22;9762;52.490;13.410;2022-08-16T10:36:18;29.40;76.50
19256;DHT22;9762;52.490;13.410;2022-08-16T10:38:44;29.50;76.50
19256;DHT22;9762;52.490;13.410;2022-08-16T10:41:11;29.60;74.60
19256;DHT22;9762;52.490;13.410;2022-08-16T10:43:38;29.60;74.70
19256;DHT22;9762;52.490;13.410;2022-08-16T10:46:07;29.80;73.90
19256;DHT22;9762;52.490;13.410;2022-08-16T10:48:33;29.90;72.50
19256;DHT22;9762;52.490;13.410;2022-08-16T10:51:00;29.90;71.10
19256;DHT22;9762;52.490;13.410;2022-08-16T10:53:30;30.10;71.90
19256;DHT22;9762;52.490;13.410;2022-08-16T10:55:56;30.50;72.10
19256;DHT22;9762;52.490;13.410;2022-08-16T10:58:24;30.90;69.80
19256;DHT22;9762;52.490;13.410;2022-08-16T11:00:50;31.30;68.50
19256;DHT22;9762;52.490;13.410;2022-08-16T11:03:16;31.70;68.00
19256;DHT22;9762;52.490;13.410;2022-08-16T11:05:41;32.20;66.50
19256;DHT22;9762;52.490;13.410;2022-08-16T11:08:09;32.70;65.30
19256;DHT22;9762;52.490;13.410;2022-08-16T11:10:39;33.20;64.10
19256;DHT22;9762;52.490;13.410;2022-08-16T11:13:05;33.70;62.20
19256;DHT22;9762;52.490;13.410;2022-08-16T11:15:33;34.20;61.70
19256;DHT22;9762;52.490;13.410;2022-08-16T11:17:59;34.80;57.70
19256;DHT22;9762;52.490;13.410;2022-08-16T11:20:25;35.30;56.70
19256;DHT22;9762;52.490;13.410;2022-08-16T11:22:53;35.80;56.40
19256;DHT22;9762;52.490;13.410;2022-08-16T11:25:26;36.30;55.10
19256;DHT22;9762;52.490;13.410;2022-08-16T11:27:55;36.90;54.90
19256;DHT22;9762;52.490;13.410;2022-08-16T11:30:21;37.50;54.10
19256;DHT22;9762;52.490;13.410;2022-08-16T11:32:47;37.90;52.60
19256;DHT22;9762;52.490;13.410;2022-08-16T11:35:16;38.40;51.20
19256;DHT22;9762;52.490;13.410;2022-08-16T11:37:51;38.70;49.50
19256;DHT22;9762;52.490;13.410;2022-08-16T11:40:20;39.00;49.10
19256;DHT22;9762;52.490;13.410;2022-08-16T11:42:46;39.50;48.80
19256;DHT22;9762;52.490;13.410;2022-08-16T11:45:12;39.90;51.10
19256;DHT22;9762;52.490;13.410;2022-08-16T11:47:37;40.30;46.40
19256;DHT22;9762;52.490;13.410;2022-08-16T11:50:07;40.60;44.80
19256;DHT22;9762;52.490;13.410;2022-08-16T11:52:35;41.10;45.50
19256;DHT22;9762;52.490;13.410;2022-08-16T11:55:02;41.50;44.10
19256;DHT22;9762;52.490;13.410;2022-08-16T11:57:28;41.60;43.60
19256;DHT22;9762;52.490;13.410;2022-08-16T11:59:54;41.50;43.80
19256;DHT22;9762;52.490;13.410;2022-08-16T12:02:20;41.10;43.50
19256;DHT22;9762;52.490;13.410;2022-08-16T12:04:46;41.50;50.70
19256;DHT22;9762;52.490;13.410;2022-08-16T12:07:11;41.40;43.40
19256;DHT22;9762;52.490;13.410;2022-08-16T12:09:38;41.60;51.70
19256;DHT22;9762;52.490;13.410;2022-08-16T12:12:04;41.80;42.80
19256;DHT22;9762;52.490;13.410;2022-08-16T12:14:31;41.90;45.60
19256;DHT22;9762;52.490;13.410;2022-08-16T12:16:59;42.10;42.70
19256;DHT22;9762;52.490;13.410;2022-08-16T12:19:26;42.10;41.70
19256;DHT22;9762;52.490;13.410;2022-08-16T12:21:52;42.10;41.60
19256;DHT22;9762;52.490;13.410;2022-08-16T12:24:17;42.10;41.10
19256;DHT22;9762;52.490;13.410;2022-08-16T12:26:43;42.10;41.70
19256;DHT22;9762;52.490;13.410;2022-08-16T12:29:09;42.10;41.10
19256;DHT22;9762;52.490;13.410;2022-08-16T12:31:35;41.90;40.90
19256;DHT22;9762;52.490;13.410;2022-08-16T12:34:01;41.60;41.00
19256;DHT22;9762;52.490;13.410;2022-08-16T12:36:27;41.30;41.40
19256;DHT22;9762;52.490;13.410;2022-08-16T12:38:53;41.00;41.80
19256;DHT22;9762;52.490;13.410;2022-08-16T12:41:20;40.60;41.90
19256;DHT22;9762;52.490;13.410;2022-08-16T12:43:46;40.20;42.10
19256;DHT22;9762;52.490;13.410;2022-08-16T12:46:13;40.00;42.20
19256;DHT22;9762;52.490;13.410;2022-08-16T12:48:39;39.70;43.00
19256;DHT22;9762;52.490;13.410;2022-08-16T12:51:35;39.60;43.40
19256;DHT22;9762;52.490;13.410;2022-08-16T12:54:05;39.60;43.20
19256;DHT22;9762;52.490;13.410;2022-08-16T12:56:35;39.40;43.40
19256;DHT22;9762;52.490;13.410;2022-08-16T12:59:06;39.20;43.70
19256;DHT22;9762;52.490;13.410;2022-08-16T13:01:35;38.90;43.60
19256;DHT22;9762;52.490;13.410;2022-08-16T13:04:02;38.60;44.10
19256;DHT22;9762;52.490;13.410;2022-08-16T13:06:28;38.30;43.80
19256;DHT22;9762;52.490;13.410;2022-08-16T13:08:55;37.90;44.70
19256;DHT22;9762;52.490;13.410;2022-08-16T13:11:34;37.60;45.10
19256;DHT22;9762;52.490;13.410;2022-08-16T13:14:02;37.20;45.50
19256;DHT22;9762;52.490;13.410;2022-08-16T13:16:28;36.90;45.70
19256;DHT22;9762;52.490;13.410;2022-08-16T13:18:54;36.60;46.20
19256;DHT22;9762;52.490;13.410;2022-08-16T13:21:20;36.40;46.60
19256;DHT22;9762;52.490;13.410;2022-08-16T13:23:46;36.10;46.70
19256;DHT22;9762;52.490;13.410;2022-08-16T13:26:11;35.90;47.30
19256;DHT22;9762;52.490;13.410;2022-08-16T13:28:37;35.70;47.50
19256;DHT22;9762;52.490;13.410;2022-08-16T13:31:02;35.50;48.10
19256;DHT22;9762;52.490;13.410;2022-08-16T13:33:31;35.30;48.00
19256;DHT22;9762;52.490;13.410;2022-08-16T13:36:04;35.20;48.10
19256;DHT22;9762;52.490;13.410;2022-08-16T13:38:31;35.00;48.30
19256;DHT22;9762;52.490;13.410;2022-08-16T13:40:57;34.90;50.50
19256;DHT22;9762;52.490;13.410;2022-08-16T13:43:26;34.70;52.50
19256;DHT22;9762;52.490;13.410;2022-08-16T13:45:51;34.60;57.50
19256;DHT22;9762;52.490;13.410;2022-08-16T13:48:17;34.60;58.80
19256;DHT22;9762;52.490;13.410;2022-08-16T13:50:43;34.70;56.50
19256;DHT22;9762;52.490;13.410;2022-08-16T13:53:09;34.80;56.20
19256;DHT22;9762;52.490;13.410;2022-08-16T13:55:36;34.90;56.00
19256;DHT22;9762;52.490;13.410;2022-08-16T13:58:02;34.90;55.90
19256;DHT22;9762;52.490;13.410;2022-08-16T14:00:27;35.10;56.10
19256;DHT22;9762;52.490;13.410;2022-08-16T14:02:53;35.50;55.80
19256;DHT22;9762;52.490;13.410;2022-08-16T14:05:19;36.00;54.80
19256;DHT22;9762;52.490;13.410;2022-08-16T14:07:45;36.30;52.00
19256;DHT22;9762;52.490;13.410;2022-08-16T14:10:12;36.60;50.00
19256;DHT22;9762;52.490;13.410;2022-08-16T14:12:38;37.10;47.40
19256;DHT22;9762;52.490;13.410;2022-08-16T14:15:07;37.50;46.60
19256;DHT22;9762;52.490;13.410;2022-08-16T14:17:33;37.70;45.20
19256;DHT22;9762;52.490;13.410;2022-08-16T14:19:59;37.70;45.00
19256;DHT22;9762;52.490;13.410;2022-08-16T14:22:28;37.80;44.50
19256;DHT22;9762;52.490;13.410;2022-08-16T14:24:55;37.70;44.10
19256;DHT22;9762;52.490;13.410;2022-08-16T14:27:24;37.60;44.20
19256;DHT22;9762;52.490;13.410;2022-08-16T14:29:51;37.40;44.30
19256;DHT22;9762;52.490;13.410;2022-08-16T14:32:23;37.30;44.40
19256;DHT22;9762;52.490;13.410;2022-08-16T14:34:49;37.10;44.30
19256;DHT22;9762;52.490;13.410;2022-08-16T14:37:15;36.90;44.40
19256;DHT22;9762;52.490;13.410;2022-08-16T14:39:41;36.70;44.60
19256;DHT22;9762;52.490;13.410;2022-08-16T14:42:09;36.60;44.90
19256;DHT22;9762;52.490;13.410;2022-08-16T14:44:35;36.50;45.40
19256;DHT22;9762;52.490;13.410;2022-08-16T14:47:03;36.40;45.40
19256;DHT22;9762;52.490;13.410;2022-08-16T14:49:28;36.30;44.90
19256;DHT22;9762;52.490;13.410;2022-08-16T14:52:32;36.20;45.00
19256;DHT22;9762;52.490;13.410;2022-08-16T14:54:50;36.10;45.00
19256;DHT22;9762;52.490;13.410;2022-08-16T14:57:17;36.00;45.50
19256;DHT22;9762;52.490;13.410;2022-08-16T14:59:43;35.90;46.00
19256;DHT22;9762;52.490;13.410;2022-08-16T15:02:20;36.10;46.50
19256;DHT22;9762;52.490;13.410;2022-08-16T15:04:45;36.20;45.20
19256;DHT22;9762;52.490;13.410;2022-08-16T15:07:12;36.30;45.40
19256;DHT22;9762;52.490;13.410;2022-08-16T15:09:42;36.40;45.20
19256;DHT22;9762;52.490;13.410;2022-08-16T15:12:10;36.70;44.90
19256;DHT22;9762;52.490;13.410;2022-08-16T15:14:40;36.60;44.70
19256;DHT22;9762;52.490;13.410;2022-08-16T15:17:06;36.50;44.50
19256;DHT22;9762;52.490;13.410;2022-08-16T15:19:33;36.60;44.50
19256;DHT22;9762;52.490;13.410;2022-08-16T15:21:59;36.70;43.90
19256;DHT22;9762;52.490;13.410;2022-08-16T15:24:25;36.80;44.30
19256;DHT22;9762;52.490;13.410;2022-08-16T15:26:51;37.10;44.00
19256;DHT22;9762;52.490;13.410;2022-08-16T15:29:18;37.20;43.70
19256;DHT22;9762;52.490;13.410;2022-08-16T15:31:47;37.30;43.10
19256;DHT22;9762;52.490;13.410;2022-08-16T15:34:13;37.30;42.90